Time;durP1;ratioP1;P1;durP2;ratioP2;P2;SDS_P1;SDS_P2;PMS_P1;PMS_P2;Temp;Humidity;BMP_temperature;BMP_pressure;BME280_temperature;BME280_humidity;BME280_pressure;Samples;Min_cycle;Max_cycle;Signal;HPM_P1;HPM_P2
2021/05/06 00:33:43;;;;;;;11.55;3.95;;;7.20;81.10;;;;;;5038225;28;20037;-85
2021/05/06 00:36:09;;;;;;;11.13;3.88;;;7.20;81.00;;;;;;5036276;28;20052;-85
2021/05/06 00:38:51;;;;;;;9.35;3.67;;;7.20;81.00;;;;;;5020411;28;20127;-84
2021/05/06 00:56:59;;;;;;;8.52;4.40;;;7.20;81.40;;;;;;5032497;28;20080;-85
2021/05/06 01:04:56;;;;;;;8.50;4.30;;;7.20;81.70;;;;;;5037229;28;20208;-84
2021/05/06 01:12:22;;;;;;;12.05;4.05;;;7.00;81.50;;;;;;5036876;28;20132;-84
2021/05/06 01:14:48;;;;;;;8.23;3.70;;;7.10;81.80;;;;;;5036825;28;20048;-85
2021/05/06 01:17:15;;;;;;;10.85;4.22;;;7.10;81.80;;;;;;5036571;28;20191;-86
2021/05/06 01:19:41;;;;;;;10.48;3.88;;;7.00;82.00;;;;;;5020258;28;20093;-84
2021/05/06 01:22:06;;;;;;;9.60;3.60;;;7.10;81.90;;;;;;5035703;28;20132;-85
2021/05/06 01:24:33;;;;;;;9.35;4.22;;;7.00;81.40;;;;;;5036790;28;20041;-84
2021/05/06 01:29:35;;;;;;;9.02;4.05;;;7.10;81.90;;;;;;5052446;28;20045;-86
2021/05/06 01:34:38;;;;;;;9.13;3.92;;;7.00;81.90;;;;;;5050135;28;20041;-86
2021/05/06 01:37:14;;;;;;;6.00;3.53;;;7.00;82.10;;;;;;5032566;28;20044;-85
2021/05/06 01:42:15;;;;;;;8.00;3.42;;;6.90;82.00;;;;;;5042744;28;20094;-84
2021/05/06 01:47:43;;;;;;;6.18;3.08;;;6.90;82.30;;;;;;5043257;28;20033;-83
2021/05/06 01:50:26;;;;;;;7.97;3.10;;;6.90;82.20;;;;;;5017797;28;20077;-84
2021/05/06 02:01:02;;;;;;;7.30;3.83;;;6.90;82.20;;;;;;5043433;28;20427;-86
2021/05/06 02:03:27;;;;;;;7.45;3.88;;;6.90;82.10;;;;;;5044442;28;20112;-86
2021/05/06 02:05:54;;;;;;;6.55;3.33;;;6.90;82.10;;;;;;5025704;28;20076;-86
2021/05/06 02:08:22;;;;;;;5.93;3.97;;;6.90;82.20;;;;;;5024648;28;20037;-84
2021/05/06 02:10:48;;;;;;;7.40;3.33;;;6.90;82.40;;;;;;5025435;28;20053;-84
2021/05/06 02:13:15;;;;;;;5.97;3.20;;;6.90;82.10;;;;;;5042124;28;20045;-86
2021/05/06 02:15:47;;;;;;;7.35;3.83;;;6.90;81.90;;;;;;5042610;28;20144;-85
2021/05/06 02:18:15;;;;;;;6.38;3.22;;;6.90;82.20;;;;;;5027159;28;20473;-84
2021/05/06 02:20:41;;;;;;;6.10;2.83;;;6.90;81.90;;;;;;5042562;28;20037;-85
2021/05/06 02:23:07;;;;;;;5.50;3.40;;;6.80;82.00;;;;;;5024770;28;20069;-85
2021/05/06 02:25:33;;;;;;;6.78;3.45;;;6.80;81.90;;;;;;5025556;28;20060;-86
2021/05/06 02:28:00;;;;;;;4.85;3.05;;;6.80;82.00;;;;;;5009910;28;20397;-85
2021/05/06 02:30:29;;;;;;;5.00;2.85;;;6.80;81.80;;;;;;5023458;28;20382;-85
2021/05/06 02:32:55;;;;;;;4.75;3.15;;;6.80;82.00;;;;;;4989915;28;20167;-85
2021/05/06 02:35:26;;;;;;;5.40;3.47;;;6.80;82.20;;;;;;5022030;28;20072;-85
2021/05/06 02:37:56;;;;;;;5.75;3.20;;;6.80;82.30;;;;;;5036757;28;20047;-84
2021/05/06 02:40:22;;;;;;;4.80;2.72;;;6.70;81.90;;;;;;5008962;28;20448;-84
2021/05/06 02:42:48;;;;;;;4.60;3.08;;;6.70;82.10;;;;;;5024849;28;20071;-84
2021/05/06 02:45:17;;;;;;;7.30;3.65;;;6.70;82.10;;;;;;5040952;28;20047;-84
2021/05/06 02:47:48;;;;;;;6.18;3.20;;;6.70;82.10;;;;;;5008717;28;20104;-85
2021/05/06 02:50:15;;;;;;;4.57;3.13;;;6.60;82.20;;;;;;5041693;28;20052;-86
2021/05/06 02:52:54;;;;;;;4.95;3.30;;;6.60;82.00;;;;;;5058014;28;20045;-84
2021/05/06 02:55:38;;;;;;;5.45;3.53;;;6.60;83.00;;;;;;5027465;28;20100;-83
2021/05/06 02:58:20;;;;;;;4.65;3.70;;;6.60;82.30;;;;;;5026970;28;20135;-86
2021/05/06 03:03:39;;;;;;;5.43;3.20;;;6.50;82.30;;;;;;5057986;28;20055;-84
2021/05/06 03:06:05;;;;;;;4.35;3.00;;;6.50;82.40;;;;;;5042534;28;20044;-85
2021/05/06 03:08:35;;;;;;;6.05;3.50;;;6.50;82.40;;;;;;5024581;28;20045;-83
2021/05/06 03:14:23;;;;;;;6.03;3.88;;;6.40;82.50;;;;;;5043959;28;20044;-84
2021/05/06 03:25:06;;;;;;;5.07;3.30;;;6.40;82.90;;;;;;5048876;28;20041;-85
2021/05/06 03:27:35;;;;;;;4.43;3.30;;;6.40;83.00;;;;;;5046910;28;20041;-84
2021/05/06 03:41:39;;;;;;;4.70;3.35;;;6.30;83.10;;;;;;5033698;28;20474;-84
2021/05/06 04:37:38;;;;;;;5.90;3.90;;;6.10;83.80;;;;;;5046848;28;20090;-82
2021/05/06 04:40:36;;;;;;;5.93;4.15;;;6.10;83.80;;;;;;5028417;28;20049;-83
2021/05/06 04:46:24;;;;;;;5.78;3.83;;;6.10;83.80;;;;;;5044665;28;20056;-87
2021/05/06 05:04:35;;;;;;;6.70;3.80;;;6.20;83.80;;;;;;5060179;28;20470;-83
2021/05/06 05:07:09;;;;;;;6.35;3.13;;;6.20;83.80;;;;;;5045217;28;20041;-84
2021/05/06 05:17:35;;;;;;;3.58;3.00;;;6.20;83.70;;;;;;5036858;28;20044;-83
2021/05/06 05:26:06;;;;;;;4.93;3.67;;;6.30;83.70;;;;;;5058156;28;20420;-83
2021/05/06 05:28:32;;;;;;;5.53;3.30;;;6.30;83.40;;;;;;5043184;28;20041;-83
2021/05/06 05:30:58;;;;;;;5.88;3.72;;;6.30;83.50;;;;;;5028183;28;20123;-85
2021/05/06 05:33:25;;;;;;;4.65;3.53;;;6.40;83.40;;;;;;5023068;28;20108;-82
2021/05/06 05:38:50;;;;;;;6.22;4.10;;;6.40;83.30;;;;;;5055767;28;20044;-80
2021/05/06 05:54:48;;;;;;;7.00;5.15;;;6.60;83.10;;;;;;5042817;28;20047;-83
2021/05/06 05:57:17;;;;;;;6.30;3.83;;;6.60;83.00;;;;;;5042092;28;20065;-82
2021/05/06 05:59:43;;;;;;;6.43;4.07;;;6.70;83.10;;;;;;5041025;28;20589;-81
2021/05/06 06:02:09;;;;;;;6.28;4.03;;;6.70;83.00;;;;;;5054792;28;20029;-80
2021/05/06 06:04:38;;;;;;;4.70;3.65;;;6.70;82.90;;;;;;5040619;28;20524;-81
2021/05/06 06:07:04;;;;;;;8.50;4.65;;;6.70;82.80;;;;;;5041630;28;20124;-81
2021/05/06 06:09:31;;;;;;;5.10;3.75;;;6.70;82.60;;;;;;5058819;28;20041;-83
2021/05/06 06:11:58;;;;;;;8.32;4.45;;;6.70;82.50;;;;;;5041324;28;20048;-80
2021/05/06 06:17:02;;;;;;;5.32;3.63;;;6.80;82.30;;;;;;5054512;28;20029;-86
2021/05/06 06:19:33;;;;;;;6.57;4.13;;;6.80;82.20;;;;;;5053511;28;20056;-84
2021/05/06 06:22:10;;;;;;;8.25;3.95;;;6.80;82.20;;;;;;5025771;28;20041;-85
2021/05/06 06:24:36;;;;;;;7.20;4.55;;;6.80;81.90;;;;;;5046064;28;20061;-82
2021/05/06 06:27:04;;;;;;;7.57;4.78;;;6.80;82.00;;;;;;5040759;28;20473;-83
2021/05/06 06:29:32;;;;;;;5.85;4.53;;;6.90;82.00;;;;;;5023131;28;20045;-87
2021/05/06 06:32:03;;;;;;;7.05;5.15;;;6.90;81.90;;;;;;4998366;28;20075;-88
2021/05/06 06:34:33;;;;;;;5.70;4.00;;;6.90;81.90;;;;;;5018812;28;20472;-92
2021/05/06 06:37:02;;;;;;;7.90;4.25;;;6.90;81.80;;;;;;5030230;28;20041;-84
2021/05/06 06:39:28;;;;;;;7.85;5.57;;;6.90;81.70;;;;;;5044953;28;20045;-83
2021/05/06 06:41:57;;;;;;;7.63;5.53;;;6.90;81.70;;;;;;5037249;28;20556;-75
2021/05/06 06:44:28;;;;;;;8.18;5.55;;;6.90;81.70;;;;;;5047212;28;20055;-80
2021/05/06 06:47:07;;;;;;;6.68;5.47;;;6.90;81.60;;;;;;5022601;28;20068;-93
2021/05/06 06:49:34;;;;;;;7.03;5.60;;;6.90;81.60;;;;;;5032021;28;20045;-81
2021/05/06 06:52:03;;;;;;;6.57;5.13;;;6.90;81.70;;;;;;5018375;28;20065;-78
2021/05/06 06:54:29;;;;;;;6.95;5.45;;;6.90;81.80;;;;;;5032838;28;20041;-88
2021/05/06 06:57:02;;;;;;;8.65;6.55;;;6.90;81.70;;;;;;5021383;28;20049;-91
2021/05/06 06:59:28;;;;;;;7.00;5.45;;;6.90;81.70;;;;;;5007669;28;20038;-92
2021/05/06 07:01:54;;;;;;;7.97;6.45;;;6.90;81.70;;;;;;5038808;28;20053;-91
2021/05/06 07:04:20;;;;;;;8.63;6.95;;;7.00;81.70;;;;;;5022616;28;20050;-91
2021/05/06 07:06:49;;;;;;;9.32;6.78;;;7.00;81.60;;;;;;5005041;28;20060;-86
2021/05/06 07:09:15;;;;;;;9.13;8.18;;;7.00;81.60;;;;;;5006568;28;20477;-91
2021/05/06 07:11:40;;;;;;;8.20;7.35;;;7.00;81.70;;;;;;5022045;28;20048;-87
2021/05/06 07:14:07;;;;;;;11.63;9.50;;;7.10;81.70;;;;;;4989331;28;20053;-85
2021/05/06 07:16:33;;;;;;;11.88;10.18;;;7.10;81.70;;;;;;5005676;28;20248;-85
2021/05/06 07:18:59;;;;;;;12.57;10.25;;;7.10;81.70;;;;;;5022778;28;20490;-91
2021/05/06 07:21:25;;;;;;;13.52;10.63;;;7.20;81.70;;;;;;5005992;28;20112;-86
2021/05/06 07:23:54;;;;;;;12.60;11.05;;;7.20;81.70;;;;;;5026142;28;20041;-87
2021/05/06 07:26:22;;;;;;;14.45;11.75;;;7.20;81.70;;;;;;5038762;28;20071;-86
2021/05/06 07:28:53;;;;;;;13.75;12.25;;;7.30;81.90;;;;;;5027225;28;20061;-85
2021/05/06 07:31:19;;;;;;;14.40;12.10;;;7.40;81.90;;;;;;5046012;28;20041;-89
2021/05/06 07:33:46;;;;;;;13.00;11.55;;;7.40;81.90;;;;;;5044196;28;20457;-88
2021/05/06 07:36:15;;;;;;;13.65;11.50;;;7.50;81.80;;;;;;5026693;28;20131;-87
2021/05/06 07:38:42;;;;;;;12.68;10.23;;;7.60;81.60;;;;;;5041246;28;20103;-90
2021/05/06 07:41:10;;;;;;;11.10;8.60;;;7.70;81.30;;;;;;5040278;28;20041;-74
2021/05/06 07:43:36;;;;;;;10.93;6.13;;;7.80;80.90;;;;;;5041820;28;20037;-79
2021/05/06 07:46:02;;;;;;;6.47;5.63;;;8.00;81.00;;;;;;5040154;28;20045;-80
2021/05/06 07:48:28;;;;;;;6.70;4.93;;;8.00;79.90;;;;;;5039964;28;20140;-78
2021/05/06 07:50:54;;;;;;;7.60;4.72;;;8.00;79.30;;;;;;5039035;28;20067;-80
2021/05/06 07:53:35;;;;;;;5.88;4.25;;;8.00;78.90;;;;;;5056156;28;20080;-79
2021/05/06 07:56:01;;;;;;;7.18;4.80;;;8.00;78.60;;;;;;5024892;28;20037;-82
2021/05/06 07:58:26;;;;;;;5.30;4.43;;;8.00;78.40;;;;;;5023416;28;20049;-79
2021/05/06 08:00:53;;;;;;;6.90;4.75;;;8.00;78.20;;;;;;5023305;28;20037;-79
2021/05/06 08:03:18;;;;;;;10.63;4.70;;;8.00;78.10;;;;;;5056701;28;20075;-87
2021/05/06 08:05:44;;;;;;;4.97;4.15;;;8.10;77.90;;;;;;5027228;28;20049;-84
2021/05/06 08:08:10;;;;;;;7.18;4.68;;;8.20;77.80;;;;;;5060006;28;20053;-81
2021/05/06 08:10:42;;;;;;;5.70;4.20;;;8.10;77.60;;;;;;5044560;28;20048;-81
2021/05/06 08:13:07;;;;;;;6.57;3.90;;;8.20;77.50;;;;;;5028866;28;20056;-82
2021/05/06 08:15:33;;;;;;;6.85;4.45;;;8.20;77.30;;;;;;5059960;28;20072;-83
2021/05/06 08:17:59;;;;;;;5.97;4.10;;;8.10;76.90;;;;;;5056943;28;20037;-81
2021/05/06 08:20:26;;;;;;;6.32;4.00;;;8.10;76.80;;;;;;5032673;28;20040;-82
2021/05/06 08:22:51;;;;;;;6.07;4.03;;;8.10;76.90;;;;;;5037234;28;20045;-82
2021/05/06 08:25:19;;;;;;;8.00;4.80;;;8.20;76.90;;;;;;5038387;28;20351;-83
2021/05/06 08:27:45;;;;;;;8.10;4.88;;;8.20;76.80;;;;;;5018492;28;20053;-84
2021/05/06 08:30:13;;;;;;;4.47;2.40;;;8.20;77.10;;;;;;5040557;28;20151;-81
2021/05/06 08:32:39;;;;;;;5.85;4.57;;;8.60;79.10;;;;;;5040365;28;20065;-85
2021/05/06 08:35:06;;;;;;;6.57;4.60;;;9.10;78.20;;;;;;5039981;28;20045;-82
2021/05/06 08:37:34;;;;;;;8.20;5.07;;;9.20;76.70;;;;;;5042052;28;20057;-85
2021/05/06 08:40:01;;;;;;;8.65;5.30;;;9.20;75.80;;;;;;5045839;28;20037;-84
2021/05/06 08:42:27;;;;;;;8.35;6.07;;;9.10;75.80;;;;;;5047552;28;20052;-88
2021/05/06 08:44:54;;;;;;;11.40;6.35;;;9.10;75.90;;;;;;5034975;28;20050;-88
2021/05/06 08:47:22;;;;;;;8.82;6.47;;;9.00;75.70;;;;;;5048183;28;20067;-83
2021/05/06 08:49:49;;;;;;;9.73;6.63;;;9.00;75.60;;;;;;5021737;28;20385;-83
2021/05/06 08:52:21;;;;;;;11.15;8.77;;;9.00;76.60;;;;;;5039977;28;20045;-86
2021/05/06 08:54:51;;;;;;;10.43;9.23;;;9.00;76.80;;;;;;5028946;28;20044;-86
2021/05/06 08:57:24;;;;;;;9.60;8.60;;;9.00;76.00;;;;;;5042885;28;20688;-86
2021/05/06 08:59:50;;;;;;;9.75;8.75;;;9.10;76.00;;;;;;5043117;28;20041;-84
2021/05/06 09:02:16;;;;;;;10.40;8.95;;;9.10;75.90;;;;;;5059561;28;20067;-87
2021/05/06 09:04:42;;;;;;;10.57;9.48;;;9.20;75.70;;;;;;5042605;28;20045;-80
2021/05/06 09:07:10;;;;;;;10.93;9.88;;;9.20;75.70;;;;;;5042672;28;20132;-81
2021/05/06 09:09:52;;;;;;;12.65;10.70;;;9.30;75.80;;;;;;5026821;28;20052;-84
2021/05/06 09:12:33;;;;;;;12.55;11.25;;;9.40;75.60;;;;;;5026551;28;20564;-84
2021/05/06 09:15:03;;;;;;;12.82;11.52;;;9.50;75.20;;;;;;5026663;28;20163;-83
2021/05/06 09:17:35;;;;;;;14.10;12.55;;;9.70;75.90;;;;;;5059252;28;20110;-82
2021/05/06 09:20:11;;;;;;;14.10;12.65;;;9.70;75.30;;;;;;5060327;28;20433;-84
2021/05/06 09:22:44;;;;;;;14.05;12.68;;;9.80;75.00;;;;;;5044120;28;20037;-87
2021/05/06 09:25:32;;;;;;;15.20;11.88;;;9.90;75.00;;;;;;5059559;28;20040;-83
2021/05/06 09:28:07;;;;;;;13.48;11.35;;;10.00;73.50;;;;;;5043565;28;20057;-88
2021/05/06 09:30:35;;;;;;;13.65;11.77;;;10.10;74.00;;;;;;5061473;28;20482;-82
2021/05/06 09:33:03;;;;;;;14.02;12.35;;;10.20;74.20;;;;;;5027413;28;20051;-84
2021/05/06 09:35:29;;;;;;;14.48;12.93;;;10.40;74.20;;;;;;5026855;28;20109;-81
2021/05/06 09:37:54;;;;;;;13.23;11.93;;;10.50;74.00;;;;;;5059882;28;20469;-81
2021/05/06 09:40:20;;;;;;;15.35;13.60;;;10.60;73.60;;;;;;5036488;28;20478;-90
2021/05/06 09:42:52;;;;;;;17.05;13.48;;;10.70;73.20;;;;;;5061070;28;20041;-85
2021/05/06 09:45:25;;;;;;;15.20;13.23;;;10.80;73.30;;;;;;5057521;28;20129;-87
2021/05/06 09:48:12;;;;;;;15.15;13.55;;;10.90;72.90;;;;;;5049473;28;20038;-76
2021/05/06 09:50:39;;;;;;;14.05;12.63;;;11.00;71.50;;;;;;5029333;28;20135;-79
2021/05/06 09:53:11;;;;;;;14.98;13.38;;;11.20;72.60;;;;;;5040195;28;20038;-81
2021/05/06 09:55:43;;;;;;;13.65;12.27;;;11.30;72.20;;;;;;5039123;28;20075;-79
2021/05/06 09:58:27;;;;;;;9.23;7.22;;;11.40;72.10;;;;;;5038363;28;20050;-85
2021/05/06 10:00:54;;;;;;;13.23;10.38;;;11.50;72.20;;;;;;5008259;28;20064;-77
2021/05/06 10:03:22;;;;;;;11.98;10.70;;;11.80;71.80;;;;;;5067780;28;20046;-85
2021/05/06 10:05:51;;;;;;;11.65;10.45;;;11.90;71.00;;;;;;5038024;28;20383;-87
2021/05/06 10:08:36;;;;;;;12.52;11.20;;;11.90;70.80;;;;;;5006248;28;20371;-86
2021/05/06 10:11:16;;;;;;;12.10;10.73;;;12.00;69.80;;;;;;4991708;28;20060;-85
2021/05/06 10:13:43;;;;;;;13.30;11.90;;;12.20;70.10;;;;;;5020369;28;20041;-78
2021/05/06 10:16:09;;;;;;;13.45;12.15;;;12.30;70.30;;;;;;5032861;28;20342;-82
2021/05/06 10:18:39;;;;;;;12.15;10.85;;;12.40;69.90;;;;;;5051124;28;20044;-87
2021/05/06 10:21:04;;;;;;;14.52;12.98;;;12.40;70.00;;;;;;5036266;28;20059;-87
2021/05/06 10:23:30;;;;;;;12.32;11.13;;;12.50;69.50;;;;;;5035571;28;20037;-84
2021/05/06 10:25:56;;;;;;;16.85;13.00;;;12.50;69.10;;;;;;5052075;28;20052;-80
2021/05/06 10:28:23;;;;;;;14.20;12.75;;;12.50;68.70;;;;;;5039375;28;20061;-83
2021/05/06 10:30:49;;;;;;;12.85;11.55;;;12.50;68.90;;;;;;5022360;28;20042;-87
2021/05/06 10:33:15;;;;;;;13.30;11.90;;;12.50;68.50;;;;;;5024717;28;20092;-80
2021/05/06 10:35:44;;;;;;;12.80;11.52;;;12.40;67.80;;;;;;5024962;28;20076;-83
2021/05/06 10:38:10;;;;;;;13.77;12.48;;;12.50;67.80;;;;;;5058110;28;20397;-86
2021/05/06 10:40:40;;;;;;;14.70;13.20;;;12.60;67.80;;;;;;5057682;28;20051;-83
2021/05/06 10:43:28;;;;;;;13.05;11.75;;;12.70;68.70;;;;;;5041149;28;20139;-81
2021/05/06 10:45:56;;;;;;;13.45;12.05;;;12.90;66.70;;;;;;5042233;28;20069;-83
2021/05/06 10:48:21;;;;;;;12.38;11.07;;;13.00;68.10;;;;;;5057385;28;20100;-87
2021/05/06 10:50:47;;;;;;;13.45;12.07;;;13.20;67.70;;;;;;5058075;28;20060;-82
2021/05/06 10:53:26;;;;;;;14.27;12.98;;;13.30;67.60;;;;;;5041058;28;20481;-84
2021/05/06 10:55:53;;;;;;;12.45;11.25;;;13.50;65.40;;;;;;5051509;28;20048;-86
2021/05/06 10:58:23;;;;;;;12.18;10.88;;;13.70;66.90;;;;;;5053974;28;20049;-88
2021/05/06 11:01:09;;;;;;;11.52;9.18;;;13.90;66.50;;;;;;5055186;28;20045;-90
2021/05/06 11:03:35;;;;;;;9.45;8.45;;;14.00;64.60;;;;;;5038180;28;20061;-88
2021/05/06 11:06:01;;;;;;;10.68;9.35;;;14.20;66.00;;;;;;5005766;28;20074;-86
2021/05/06 11:08:28;;;;;;;9.90;8.90;;;14.30;65.60;;;;;;5045311;28;20131;-85
2021/05/06 11:10:57;;;;;;;10.30;9.00;;;14.40;65.10;;;;;;5017274;28;20049;-86
2021/05/06 11:13:26;;;;;;;8.98;8.05;;;14.50;64.80;;;;;;5048576;28;20049;-86
2021/05/06 11:16:13;;;;;;;9.15;8.10;;;14.70;64.60;;;;;;5019657;28;20119;-86
2021/05/06 11:18:51;;;;;;;10.18;7.75;;;14.80;63.80;;;;;;5035038;28;20073;-88
2021/05/06 11:21:31;;;;;;;8.80;7.88;;;14.80;62.40;;;;;;5045634;28;20338;-88
2021/05/06 11:24:21;;;;;;;10.88;8.77;;;14.80;60.30;;;;;;5071194;28;20048;-89
2021/05/06 11:27:00;;;;;;;11.18;8.63;;;14.80;58.80;;;;;;5045546;28;20124;-90
2021/05/06 11:29:29;;;;;;;9.20;7.80;;;14.90;61.40;;;;;;5062127;28;20413;-85
2021/05/06 11:31:57;;;;;;;9.30;7.95;;;15.00;62.10;;;;;;5039549;28;20052;-84
2021/05/06 11:34:38;;;;;;;8.75;7.32;;;15.10;61.90;;;;;;5018510;28;20055;-88
2021/05/06 11:37:14;;;;;;;8.43;7.53;;;15.20;59.70;;;;;;5025321;28;20049;-87
2021/05/06 11:39:53;;;;;;;8.93;7.72;;;15.40;59.50;;;;;;5042081;28;20033;-87
2021/05/06 11:42:23;;;;;;;7.90;6.88;;;15.50;59.10;;;;;;5029558;28;20072;-91
2021/05/06 11:45:08;;;;;;;8.20;7.28;;;15.70;59.80;;;;;;5029234;28;20053;-92
2021/05/06 11:47:34;;;;;;;7.18;6.35;;;15.80;57.00;;;;;;5028158;28;20067;-91
2021/05/06 11:50:18;;;;;;;7.95;7.15;;;16.00;59.20;;;;;;5045850;28;20045;-91
2021/05/06 11:52:44;;;;;;;7.90;6.68;;;16.00;58.70;;;;;;5048260;28;20529;-82
2021/05/06 11:55:24;;;;;;;8.20;6.25;;;16.20;57.90;;;;;;5026959;28;20065;-80
2021/05/06 11:57:50;;;;;;;6.90;5.78;;;16.30;57.60;;;;;;5017637;28;20046;-85
2021/05/06 12:00:16;;;;;;;7.03;5.60;;;16.40;56.60;;;;;;5048792;28;20481;-83
2021/05/06 12:02:42;;;;;;;8.00;6.57;;;16.50;56.20;;;;;;5035329;28;20445;-85
2021/05/06 12:05:08;;;;;;;5.65;5.05;;;16.50;55.70;;;;;;5035709;28;20117;-85
2021/05/06 12:07:34;;;;;;;7.22;5.35;;;16.40;55.20;;;;;;5052657;28;20135;-82
2021/05/06 12:10:09;;;;;;;6.20;5.60;;;16.30;54.00;;;;;;5039823;28;20050;-85
2021/05/06 12:12:35;;;;;;;6.65;5.18;;;16.20;51.60;;;;;;5034749;28;20056;-89
2021/05/06 12:15:01;;;;;;;7.45;6.00;;;16.10;54.10;;;;;;5049978;28;20037;-83
2021/05/06 12:17:27;;;;;;;7.78;6.63;;;16.00;54.40;;;;;;5048697;28;20057;-87
2021/05/06 12:19:52;;;;;;;6.97;5.78;;;15.90;55.10;;;;;;5048684;28;20053;-81
2021/05/06 12:22:18;;;;;;;7.13;5.50;;;15.80;55.00;;;;;;5039378;28;20046;-83
2021/05/06 12:24:46;;;;;;;5.93;5.35;;;15.70;54.30;;;;;;4999091;28;20048;-81
2021/05/06 12:27:24;;;;;;;6.53;4.90;;;15.60;53.30;;;;;;5035167;28;20054;-83
2021/05/06 12:29:57;;;;;;;5.40;4.90;;;15.60;50.80;;;;;;5015237;28;20606;-78
2021/05/06 12:32:23;;;;;;;5.40;4.90;;;15.60;52.10;;;;;;5036074;28;20058;-78
2021/05/06 12:34:49;;;;;;;6.70;5.00;;;15.60;54.40;;;;;;5036747;28;20310;-79
2021/05/06 12:37:15;;;;;;;4.88;4.32;;;15.70;54.60;;;;;;5021401;28;20406;-80
2021/05/06 12:39:42;;;;;;;6.35;5.43;;;15.70;55.40;;;;;;5015564;28;20042;-85
2021/05/06 12:42:08;;;;;;;8.30;4.20;;;15.80;55.30;;;;;;5036097;28;20053;-81
2021/05/06 12:44:52;;;;;;;6.65;5.22;;;15.80;55.50;;;;;;5021831;28;20049;-85
2021/05/06 12:47:24;;;;;;;7.38;5.90;;;15.90;54.20;;;;;;5019602;28;20121;-82
2021/05/06 12:50:13;;;;;;;5.78;4.55;;;16.00;55.80;;;;;;5017426;28;20047;-82
2021/05/06 12:52:43;;;;;;;5.93;5.22;;;16.00;50.20;;;;;;5038442;28;20056;-78
2021/05/06 12:55:19;;;;;;;5.88;4.85;;;16.00;53.90;;;;;;5039560;28;20041;-87
2021/05/06 12:57:46;;;;;;;6.50;4.88;;;16.10;52.20;;;;;;5030523;28;20454;-77
2021/05/06 13:00:17;;;;;;;6.32;4.60;;;16.20;52.90;;;;;;5018851;28;20058;-80
2021/05/06 13:02:42;;;;;;;5.15;4.45;;;16.20;51.90;;;;;;4998434;28;20057;-84
2021/05/06 13:05:08;;;;;;;5.72;4.20;;;16.30;52.90;;;;;;5052416;28;20048;-83
2021/05/06 13:07:51;;;;;;;6.03;5.32;;;16.50;52.60;;;;;;5005169;28;20163;-82
2021/05/06 13:10:34;;;;;;;6.57;5.43;;;16.50;50.40;;;;;;5001517;28;20049;-82
2021/05/06 13:13:01;;;;;;;6.63;6.03;;;16.60;50.40;;;;;;5001644;28;20370;-77
2021/05/06 13:15:28;;;;;;;7.50;6.70;;;16.60;52.70;;;;;;5007572;28;20114;-79
2021/05/06 13:17:55;;;;;;;7.20;6.50;;;16.50;52.30;;;;;;5019322;28;20121;-77
2021/05/06 13:20:25;;;;;;;6.75;6.03;;;16.50;53.40;;;;;;5029869;28;20030;-82
2021/05/06 13:23:35;;;;;;;6.57;5.88;;;16.40;52.20;;;;;;5046065;28;20379;-80
2021/05/06 13:26:03;;;;;;;6.47;5.75;;;16.30;48.90;;;;;;5045558;28;20040;-81
2021/05/06 13:28:30;;;;;;;6.38;5.45;;;16.20;52.80;;;;;;5032162;28;20053;-84
2021/05/06 13:31:05;;;;;;;5.50;4.80;;;16.10;53.00;;;;;;5047369;28;20029;-78
2021/05/06 13:33:30;;;;;;;5.38;4.32;;;15.90;51.60;;;;;;5030067;28;20044;-77
2021/05/06 13:36:17;;;;;;;6.05;5.00;;;15.80;52.70;;;;;;5045845;28;20037;-78
2021/05/06 13:39:06;;;;;;;5.72;5.13;;;15.70;50.30;;;;;;5036989;28;20052;-82
2021/05/06 13:41:39;;;;;;;4.72;2.75;;;15.60;50.60;;;;;;5037398;28;20058;-80
2021/05/06 13:44:06;;;;;;;6.72;5.78;;;15.70;54.70;;;;;;5049073;28;20056;-83
2021/05/06 13:46:34;;;;;;;7.10;5.85;;;15.80;54.60;;;;;;5034592;28;20045;-82
2021/05/06 13:48:59;;;;;;;7.15;6.50;;;15.70;53.60;;;;;;5049863;28;20072;-78
2021/05/06 13:51:26;;;;;;;6.97;6.32;;;15.50;53.50;;;;;;5034543;28;20121;-82
2021/05/06 13:53:52;;;;;;;7.60;6.90;;;15.40;53.20;;;;;;5050580;28;20503;-80
2021/05/06 13:56:18;;;;;;;7.65;6.95;;;15.30;53.80;;;;;;5050667;28;20500;-81
2021/05/06 13:58:44;;;;;;;7.78;6.97;;;15.10;54.20;;;;;;5048306;28;20045;-87
2021/05/06 14:01:10;;;;;;;7.93;7.13;;;14.90;54.00;;;;;;5064185;28;20040;-83
2021/05/06 14:03:38;;;;;;;7.40;6.53;;;14.70;54.30;;;;;;5052894;28;20049;-83
2021/05/06 14:06:05;;;;;;;7.88;7.07;;;14.50;54.50;;;;;;5049932;28;20088;-76
2021/05/06 14:08:33;;;;;;;7.63;6.88;;;14.50;54.60;;;;;;5059558;28;20048;-81
2021/05/06 14:10:59;;;;;;;8.45;7.55;;;14.30;54.70;;;;;;5029891;28;20050;-81
2021/05/06 14:13:25;;;;;;;8.85;7.95;;;14.20;55.60;;;;;;5013730;28;20115;-82
2021/05/06 14:15:51;;;;;;;7.40;6.70;;;14.10;55.90;;;;;;4996691;28;20050;-79
2021/05/06 14:18:17;;;;;;;8.52;6.43;;;14.00;55.90;;;;;;5019796;28;20098;-86
2021/05/06 14:20:43;;;;;;;7.50;6.72;;;13.90;55.80;;;;;;5043078;28;20410;-84
2021/05/06 14:23:09;;;;;;;4.47;3.55;;;13.90;56.00;;;;;;5000600;28;20398;-80
2021/05/06 14:25:35;;;;;;;3.80;3.05;;;13.90;55.80;;;;;;5032815;28;20120;-85
2021/05/06 14:28:02;;;;;;;3.15;2.50;;;13.90;55.60;;;;;;5033198;28;20441;-79
2021/05/06 14:30:28;;;;;;;4.00;3.58;;;13.90;55.00;;;;;;5032301;28;20065;-80
2021/05/06 14:32:53;;;;;;;3.75;3.30;;;13.90;55.20;;;;;;5048871;28;20068;-79
2021/05/06 14:35:19;;;;;;;6.60;4.30;;;13.90;54.80;;;;;;5065931;28;20064;-82
2021/05/06 14:37:45;;;;;;;4.97;4.40;;;13.90;54.00;;;;;;5032399;28;20501;-85
2021/05/06 14:40:11;;;;;;;6.72;5.55;;;13.90;54.00;;;;;;5013288;28;20052;-82
2021/05/06 14:42:38;;;;;;;6.43;5.45;;;13.90;54.00;;;;;;5022476;28;20053;-79
2021/05/06 14:45:05;;;;;;;6.72;5.10;;;13.90;54.90;;;;;;5028633;28;21968;-77
2021/05/06 14:47:30;;;;;;;5.90;4.80;;;13.90;55.20;;;;;;5047647;28;20053;-77
2021/05/06 14:49:59;;;;;;;5.30;4.40;;;13.90;55.00;;;;;;5044105;28;20530;-78
2021/05/06 14:52:25;;;;;;;4.75;3.97;;;13.90;54.40;;;;;;5038355;28;20435;-75
2021/05/06 14:54:51;;;;;;;3.00;2.17;;;13.90;54.50;;;;;;5043184;28;20072;-81
2021/05/06 14:57:17;;;;;;;2.60;1.70;;;13.90;55.30;;;;;;5042759;28;20045;-80
2021/05/06 14:59:43;;;;;;;2.35;1.90;;;13.80;54.90;;;;;;5041544;28;20040;-79
2021/05/06 15:02:08;;;;;;;4.47;1.90;;;13.80;54.40;;;;;;5049000;28;20045;-77
2021/05/06 15:04:34;;;;;;;3.55;1.65;;;13.80;54.50;;;;;;5050886;28;20383;-80
2021/05/06 15:07:00;;;;;;;3.72;1.75;;;13.70;54.60;;;;;;5028882;28;20044;-77
2021/05/06 15:09:26;;;;;;;2.67;1.90;;;13.70;54.00;;;;;;5038749;28;20050;-79
2021/05/06 15:11:52;;;;;;;3.47;2.25;;;13.70;53.60;;;;;;5039454;28;20067;-85
2021/05/06 15:14:18;;;;;;;4.20;2.58;;;13.60;54.10;;;;;;5008425;28;20128;-80
2021/05/06 15:16:44;;;;;;;3.22;2.88;;;13.60;53.80;;;;;;5048643;28;20112;-83
2021/05/06 15:19:10;;;;;;;4.53;3.40;;;13.60;54.10;;;;;;5048536;28;20036;-85
2021/05/06 15:21:35;;;;;;;4.55;3.60;;;13.60;54.20;;;;;;5030968;28;20548;-74
2021/05/06 15:24:01;;;;;;;4.18;3.78;;;13.60;53.90;;;;;;5043516;28;20033;-78
2021/05/06 15:26:27;;;;;;;5.53;3.78;;;13.60;53.90;;;;;;5045185;28;20053;-79
2021/05/06 15:28:53;;;;;;;5.18;4.32;;;13.50;53.70;;;;;;5047350;28;20159;-78
2021/05/06 15:31:19;;;;;;;5.95;4.07;;;13.50;53.80;;;;;;5031257;28;20069;-77
2021/05/06 15:33:47;;;;;;;4.93;4.13;;;13.40;54.00;;;;;;5047744;28;20460;-81
2021/05/06 15:36:17;;;;;;;4.68;4.22;;;13.40;53.70;;;;;;5047470;28;20322;-77
2021/05/06 15:38:44;;;;;;;6.93;4.85;;;13.30;53.80;;;;;;5048237;28;20442;-80
2021/05/06 15:41:09;;;;;;;5.07;4.43;;;13.30;54.10;;;;;;5047244;28;20041;-80
2021/05/06 15:43:35;;;;;;;4.63;4.10;;;13.30;54.10;;;;;;5032076;28;20429;-79
2021/05/06 15:46:01;;;;;;;6.05;4.78;;;13.30;54.10;;;;;;5049534;28;20560;-81
2021/05/06 15:48:27;;;;;;;5.13;4.63;;;13.30;54.80;;;;;;5050399;28;20486;-77
2021/05/06 15:50:52;;;;;;;4.78;4.32;;;13.30;54.50;;;;;;5050656;28;20041;-78
2021/05/06 15:53:21;;;;;;;6.55;4.70;;;13.30;54.20;;;;;;5032001;28;20117;-78
2021/05/06 15:55:46;;;;;;;5.78;4.60;;;13.30;54.10;;;;;;5049680;28;20033;-80
2021/05/06 15:58:12;;;;;;;5.80;5.20;;;13.30;53.90;;;;;;5032158;28;20532;-81
2021/05/06 16:00:38;;;;;;;6.95;5.57;;;13.30;54.80;;;;;;5050613;28;20140;-78
2021/05/06 16:03:11;;;;;;;6.30;5.00;;;13.30;55.40;;;;;;5047789;28;20053;-80
2021/05/06 16:05:39;;;;;;;7.15;4.82;;;13.30;54.40;;;;;;5049532;28;20072;-79
2021/05/06 16:08:05;;;;;;;5.95;4.85;;;13.20;54.10;;;;;;5064303;28;20045;-78
2021/05/06 16:10:34;;;;;;;8.00;5.80;;;13.30;54.10;;;;;;5032225;28;20195;-80
2021/05/06 16:13:00;;;;;;;5.60;5.10;;;13.20;54.40;;;;;;5047717;28;20215;-84
2021/05/06 16:15:28;;;;;;;7.28;5.50;;;13.20;54.20;;;;;;5047740;28;20543;-79
2021/05/06 16:17:54;;;;;;;5.57;4.97;;;13.20;54.30;;;;;;5033134;28;20114;-80
2021/05/06 16:20:30;;;;;;;5.63;5.10;;;13.10;54.20;;;;;;5031503;28;20085;-80
2021/05/06 16:22:56;;;;;;;6.07;5.47;;;13.20;54.00;;;;;;5033782;28;20112;-80
2021/05/06 16:25:24;;;;;;;6.07;5.47;;;13.10;54.10;;;;;;5047824;28;20037;-81
2021/05/06 16:27:50;;;;;;;6.57;5.40;;;13.10;54.30;;;;;;5052275;28;20072;-79